Time,TemperatureF,DewpointF,PressureIn,WindDirection,WindDirectionDegrees,WindSpeedMPH,WindSpeedGustMPH,Humidity,HourlyPrecipIn,Conditions,Clouds,dailyrainin,SoftwareType,DateUTC
2013-06-11 00:02:00,62.0,56.0,29.83,West,261,0.0,0.0,82,0.00,,,-99.99,,2013-06-11 07:02:00,
2013-06-11 00:11:00,62.0,56.0,29.83,West,261,0.0,0.0,82,0.00,,,-99.99,,2013-06-11 07:11:00,
2013-06-11 00:32:00,62.0,56.0,29.82,West,261,0.0,0.0,82,0.00,,,-99.99,,2013-06-11 07:32:00,
2013-06-11 00:42:00,62.0,56.0,29.82,West,261,0.0,0.0,82,0.00,,,-99.99,,2013-06-11 07:42:00,
2013-06-11 00:52:00,62.0,56.0,29.82,West,261,0.0,0.0,82,0.00,,,-99.99,,2013-06-11 07:52:00,
2013-06-11 01:02:00,62.0,56.0,29.82,West,261,0.0,0.0,82,0.00,,,-99.99,,2013-06-11 08:02:00,
2013-06-11 01:11:00,62.0,56.0,29.82,West,261,0.0,0.0,82,0.00,,,-99.99,,2013-06-11 08:11:00,
2013-06-11 02:02:00,62.0,56.0,29.80,NNE,24,1.0,4.0,80,0.00,,,-99.99,,2013-06-11 09:02:00,
2013-06-11 02:12:00,62.0,56.0,29.80,NNE,24,1.0,4.0,80,0.00,,,-99.99,,2013-06-11 09:12:00,
2013-06-11 02:22:00,62.0,56.0,29.80,NNE,24,1.0,4.0,80,0.00,,,-99.99,,2013-06-11 09:22:00,
2013-06-11 02:33:00,61.0,55.0,29.80,NE,34,2.0,6.0,80,0.00,,,-99.99,,2013-06-11 09:33:00,
2013-06-11 02:42:00,61.0,55.0,29.80,NE,34,2.0,6.0,80,0.00,,,-99.99,,2013-06-11 09:42:00,
2013-06-11 02:53:00,61.0,55.0,29.80,NE,34,2.0,6.0,80,0.00,,,-99.99,,2013-06-11 09:53:00,
2013-06-11 03:03:00,61.0,55.0,29.80,NE,34,2.0,6.0,80,0.00,,,-99.99,,2013-06-11 10:03:00,
2013-06-11 03:12:00,61.0,55.0,29.80,NE,34,2.0,6.0,80,0.00,,,-99.99,,2013-06-11 10:12:00,
2013-06-11 03:33:00,61.0,55.0,29.78,NNE,17,2.0,6.0,81,0.00,,,-99.99,,2013-06-11 10:33:00,
2013-06-11 03:43:00,61.0,55.0,29.78,NNE,17,2.0,6.0,81,0.00,,,-99.99,,2013-06-11 10:43:00,
2013-06-11 03:52:00,61.0,55.0,29.78,NNE,17,2.0,6.0,81,0.00,,,-99.99,,2013-06-11 10:52:00,
2013-06-11 04:02:00,60.0,54.0,29.78,NNE,17,0.0,5.0,81,0.00,,,-99.99,,2013-06-11 11:02:00,
2013-06-11 04:11:00,60.0,54.0,29.78,NNE,17,0.0,5.0,81,0.00,,,-99.99,,2013-06-11 11:11:00,
2013-06-11 04:22:00,60.0,54.0,29.78,NNE,17,0.0,5.0,81,0.00,,,-99.99,,2013-06-11 11:22:00,
2013-06-11 04:32:00,59.0,54.0,29.79,NNE,17,0.0,0.0,82,0.00,,,-99.99,,2013-06-11 11:32:00,
2013-06-11 04:41:00,59.0,54.0,29.79,NNE,17,0.0,0.0,82,0.00,,,-99.99,,2013-06-11 11:41:00,
2013-06-11 04:52:00,59.0,54.0,29.79,NNE,17,0.0,0.0,82,0.00,,,-99.99,,2013-06-11 11:52:00,
2013-06-11 05:02:00,59.0,54.0,29.79,NNE,17,0.0,0.0,82,0.00,,,-99.99,,2013-06-11 12:02:00,
2013-06-11 05:11:00,59.0,54.0,29.79,NNE,17,0.0,0.0,82,0.00,,,-99.99,,2013-06-11 12:11:00,
2013-06-11 06:02:00,58.0,53.0,29.80,NNE,17,0.0,0.0,84,0.00,,,-99.99,,2013-06-11 13:02:00,
2013-06-11 06:12:00,58.0,53.0,29.80,NNE,17,0.0,0.0,84,0.00,,,-99.99,,2013-06-11 13:12:00,
2013-06-11 06:22:00,58.0,53.0,29.80,NNE,17,0.0,0.0,84,0.00,,,-99.99,,2013-06-11 13:22:00,
2013-06-11 06:32:00,58.0,54.0,29.80,NNE,17,0.0,2.0,85,0.00,,,-99.99,,2013-06-11 13:32:00,
2013-06-11 06:42:00,58.0,54.0,29.80,NNE,17,0.0,2.0,85,0.00,,,-99.99,,2013-06-11 13:42:00,
2013-06-11 06:52:00,58.0,54.0,29.80,NNE,17,0.0,2.0,85,0.00,,,-99.99,,2013-06-11 13:52:00,
2013-06-11 07:02:00,59.0,54.0,29.80,NNE,17,1.0,5.0,84,0.00,,,-99.99,,2013-06-11 14:02:00,
2013-06-11 07:11:00,59.0,54.0,29.80,NNE,17,1.0,5.0,84,0.00,,,-99.99,,2013-06-11 14:11:00,
2013-06-11 07:22:00,59.0,54.0,29.80,NNE,17,1.0,5.0,84,0.00,,,-99.99,,2013-06-11 14:22:00,
2013-06-11 07:32:00,61.0,55.0,29.80,NE,47,4.0,7.0,82,0.00,,,-99.99,,2013-06-11 14:32:00,
2013-06-11 07:42:00,61.0,55.0,29.80,NE,47,4.0,7.0,82,0.00,,,-99.99,,2013-06-11 14:42:00,
2013-06-11 07:53:00,61.0,55.0,29.80,NE,47,4.0,7.0,82,0.00,,,-99.99,,2013-06-11 14:53:00,
2013-06-11 08:02:00,61.0,55.0,29.80,NE,47,4.0,7.0,82,0.00,,,-99.99,,2013-06-11 15:02:00,
2013-06-11 08:11:00,61.0,55.0,29.80,NE,47,4.0,7.0,82,0.00,,,-99.99,,2013-06-11 15:11:00,
2013-06-11 08:33:00,66.0,56.0,29.80,NNE,24,1.0,4.0,70,0.00,,,-99.99,,2013-06-11 15:33:00,
2013-06-11 08:43:00,66.0,56.0,29.80,NNE,24,1.0,4.0,70,0.00,,,-99.99,,2013-06-11 15:43:00,
2013-06-11 08:53:00,66.0,56.0,29.80,NNE,24,1.0,4.0,70,0.00,,,-99.99,,2013-06-11 15:53:00,
2013-06-11 09:02:00,69.0,57.0,29.81,NNE,22,0.0,2.0,66,0.00,,,-99.99,,2013-06-11 16:02:00,
2013-06-11 09:12:00,69.0,57.0,29.81,NNE,22,0.0,2.0,66,0.00,,,-99.99,,2013-06-11 16:12:00,
2013-06-11 09:22:00,69.0,57.0,29.81,NNE,22,0.0,2.0,66,0.00,,,-99.99,,2013-06-11 16:22:00,
2013-06-11 09:32:00,69.0,57.0,29.81,NNE,22,0.0,2.0,66,0.00,,,-99.99,,2013-06-11 16:32:00,
2013-06-11 09:42:00,69.0,57.0,29.81,NNE,22,0.0,2.0,66,0.00,,,-99.99,,2013-06-11 16:42:00,
2013-06-11 12:33:00,75.0,59.0,29.81,SSE,168,1.0,4.0,57,0.00,,,-99.99,,2013-06-11 19:33:00,
2013-06-11 12:42:00,75.0,59.0,29.81,SSE,168,1.0,4.0,57,0.00,,,-99.99,,2013-06-11 19:42:00,
2013-06-11 12:52:00,75.0,59.0,29.81,SSE,168,1.0,4.0,57,0.00,,,-99.99,,2013-06-11 19:52:00,
2013-06-11 13:02:00,75.0,59.0,29.81,SSE,168,1.0,4.0,57,0.00,,,-99.99,,2013-06-11 20:02:00,
2013-06-11 13:11:00,75.0,59.0,29.81,SSE,168,1.0,4.0,57,0.00,,,-99.99,,2013-06-11 20:11:00,
2013-06-11 13:32:00,73.0,59.0,29.80,SSW,196,1.0,5.0,61,0.00,,,-99.99,,2013-06-11 20:32:00,
2013-06-11 13:42:00,73.0,59.0,29.80,SSW,196,1.0,5.0,61,0.00,,,-99.99,,2013-06-11 20:42:00,
2013-06-11 13:52:00,73.0,59.0,29.80,SSW,196,1.0,5.0,61,0.00,,,-99.99,,2013-06-11 20:52:00,
2013-06-11 14:02:00,73.0,59.0,29.80,SSW,196,1.0,5.0,61,0.00,,,-99.99,,2013-06-11 21:02:00,
2013-06-11 14:11:00,73.0,59.0,29.80,SSW,196,1.0,5.0,61,0.00,,,-99.99,,2013-06-11 21:11:00,
2013-06-11 14:33:00,77.0,60.0,29.78,South,170,1.0,4.0,55,0.00,,,-99.99,,2013-06-11 21:33:00,
2013-06-11 14:42:00,77.0,60.0,29.78,South,170,1.0,4.0,55,0.00,,,-99.99,,2013-06-11 21:42:00,
2013-06-11 14:53:00,77.0,60.0,29.78,South,170,1.0,4.0,55,0.00,,,-99.99,,2013-06-11 21:53:00,
2013-06-11 15:03:00,77.0,59.0,29.78,WSW,243,1.0,5.0,54,0.00,,,-99.99,,2013-06-11 22:03:00,
2013-06-11 15:12:00,77.0,59.0,29.78,WSW,243,1.0,5.0,54,0.00,,,-99.99,,2013-06-11 22:12:00,
2013-06-11 15:22:00,77.0,59.0,29.78,WSW,243,1.0,5.0,54,0.00,,,-99.99,,2013-06-11 22:22:00,
2013-06-11 15:32:00,74.0,59.0,29.78,SSW,210,1.0,5.0,60,0.00,,,-99.99,,2013-06-11 22:32:00,
2013-06-11 15:42:00,74.0,59.0,29.78,SSW,210,1.0,5.0,60,0.00,,,-99.99,,2013-06-11 22:42:00,
2013-06-11 15:52:00,74.0,59.0,29.78,SSW,210,1.0,5.0,60,0.00,,,-99.99,,2013-06-11 22:52:00,
2013-06-11 16:02:00,73.0,58.0,29.78,SSW,203,1.0,5.0,60,0.00,,,-99.99,,2013-06-11 23:02:00,
2013-06-11 16:11:00,73.0,58.0,29.78,SSW,203,1.0,5.0,60,0.00,,,-99.99,,2013-06-11 23:11:00,
2013-06-11 16:22:00,73.0,58.0,29.78,SSW,203,1.0,5.0,60,0.00,,,-99.99,,2013-06-11 23:22:00,
2013-06-11 16:32:00,73.0,58.0,29.78,SSW,203,1.0,5.0,60,0.00,,,-99.99,,2013-06-11 23:32:00,
2013-06-11 16:42:00,73.0,58.0,29.78,SSW,203,1.0,5.0,60,0.00,,,-99.99,,2013-06-11 23:42:00,
2013-06-11 17:02:00,72.0,58.0,29.79,SSW,202,0.0,4.0,62,0.00,,,-99.99,,2013-06-12 00:02:00,
2013-06-11 17:12:00,72.0,58.0,29.79,SSW,202,0.0,4.0,62,0.00,,,-99.99,,2013-06-12 00:12:00,
2013-06-11 17:22:00,72.0,58.0,29.79,SSW,202,0.0,4.0,62,0.00,,,-99.99,,2013-06-12 00:22:00,
2013-06-11 17:32:00,71.0,57.0,29.79,SSW,202,1.0,6.0,61,0.00,,,-99.99,,2013-06-12 00:32:00,
2013-06-11 17:42:00,71.0,57.0,29.79,SSW,202,1.0,6.0,61,0.00,,,-99.99,,2013-06-12 00:42:00,
2013-06-11 17:52:00,71.0,57.0,29.79,SSW,202,1.0,6.0,61,0.00,,,-99.99,,2013-06-12 00:52:00,
2013-06-11 18:02:00,70.0,57.0,29.78,WSW,257,0.0,4.0,63,0.00,,,-99.99,,2013-06-12 01:02:00,
2013-06-11 18:11:00,70.0,57.0,29.78,WSW,257,0.0,4.0,63,0.00,,,-99.99,,2013-06-12 01:11:00,
2013-06-11 18:22:00,70.0,57.0,29.78,WSW,257,0.0,4.0,63,0.00,,,-99.99,,2013-06-12 01:22:00,
2013-06-11 18:32:00,70.0,57.0,29.78,West,269,0.0,2.0,63,0.00,,,-99.99,,2013-06-12 01:32:00,
2013-06-11 18:42:00,70.0,57.0,29.78,West,269,0.0,2.0,63,0.00,,,-99.99,,2013-06-12 01:42:00,
2013-06-11 18:52:00,70.0,57.0,29.78,West,269,0.0,2.0,63,0.00,,,-99.99,,2013-06-12 01:52:00,
2013-06-11 19:02:00,69.0,57.0,29.78,West,275,0.0,3.0,65,0.00,,,-99.99,,2013-06-12 02:02:00,
2013-06-11 19:11:00,69.0,57.0,29.78,West,275,0.0,3.0,65,0.00,,,-99.99,,2013-06-12 02:11:00,
2013-06-11 19:22:00,69.0,57.0,29.78,West,275,0.0,3.0,65,0.00,,,-99.99,,2013-06-12 02:22:00,
2013-06-11 19:32:00,69.0,57.0,29.78,West,275,0.0,3.0,65,0.00,,,-99.99,,2013-06-12 02:32:00,
2013-06-11 19:42:00,69.0,57.0,29.78,West,275,0.0,3.0,65,0.00,,,-99.99,,2013-06-12 02:42:00,
2013-06-11 20:33:00,67.0,57.0,29.77,West,275,0.0,0.0,71,0.00,,,-99.99,,2013-06-12 03:33:00,
2013-06-11 20:43:00,67.0,57.0,29.77,West,275,0.0,0.0,71,0.00,,,-99.99,,2013-06-12 03:43:00,
2013-06-11 20:53:00,67.0,57.0,29.77,West,275,0.0,0.0,71,0.00,,,-99.99,,2013-06-12 03:53:00,
2013-06-11 21:02:00,65.0,57.0,29.77,West,275,0.0,0.0,75,0.00,,,-99.99,,2013-06-12 04:02:00,
2013-06-11 21:12:00,65.0,57.0,29.77,West,275,0.0,0.0,75,0.00,,,-99.99,,2013-06-12 04:12:00,
2013-06-11 21:22:00,65.0,57.0,29.77,West,275,0.0,0.0,75,0.00,,,-99.99,,2013-06-12 04:22:00,
2013-06-11 21:33:00,64.0,57.0,29.78,West,275,0.0,1.0,77,0.00,,,-99.99,,2013-06-12 04:33:00,
2013-06-11 21:42:00,64.0,57.0,29.78,West,275,0.0,1.0,77,0.00,,,-99.99,,2013-06-12 04:42:00,
2013-06-11 21:52:00,64.0,57.0,29.78,West,275,0.0,1.0,77,0.00,,,-99.99,,2013-06-12 04:52:00,
2013-06-11 22:02:00,64.0,57.0,29.78,West,275,0.0,1.0,77,0.00,,,-99.99,,2013-06-12 05:02:00,
2013-06-11 22:12:00,64.0,57.0,29.78,West,275,0.0,1.0,77,0.00,,,-99.99,,2013-06-12 05:12:00,
2013-06-11 22:32:00,62.0,56.0,29.80,West,275,0.0,0.0,82,0.00,,,-99.99,,2013-06-12 05:32:00,
2013-06-11 22:42:00,62.0,56.0,29.80,West,275,0.0,0.0,82,0.00,,,-99.99,,2013-06-12 05:42:00,
2013-06-11 22:52:00,62.0,56.0,29.80,West,275,0.0,0.0,82,0.00,,,-99.99,,2013-06-12 05:52:00,
2013-06-11 23:02:00,62.0,56.0,29.80,West,275,0.0,0.0,82,0.00,,,-99.99,,2013-06-12 06:02:00,
2013-06-11 23:12:00,62.0,56.0,29.80,West,275,0.0,0.0,82,0.00,,,-99.99,,2013-06-12 06:12:00,